sensor_id;sensor_type;location;lat;lon;timestamp;P1;durP1;ratioP1;P2;durP2;ratioP2
73672;SDS011;61972;19.480;-99.240;2022-11-18T00:00:48;23.85;;;16.00;;
73672;SDS011;61972;19.480;-99.240;2022-11-18T00:03:15;23.85;;;15.50;;
73672;SDS011;61972;19.480;-99.240;2022-11-18T00:05:41;24.67;;;15.03;;
73672;SDS011;61972;19.480;-99.240;2022-11-18T00:08:07;24.05;;;14.85;;
73672;SDS011;61972;19.480;-99.240;2022-11-18T00:10:36;22.13;;;14.18;;
73672;SDS011;61972;19.480;-99.240;2022-11-18T00:13:12;20.83;;;14.50;;
73672;SDS011;61972;19.480;-99.240;2022-11-18T00:16:20;22.40;;;13.65;;
73672;SDS011;61972;19.480;-99.240;2022-11-18T00:18:49;23.27;;;13.43;;
73672;SDS011;61972;19.480;-99.240;2022-11-18T00:21:18;20.02;;;12.95;;
73672;SDS011;61972;19.480;-99.240;2022-11-18T00:23:49;20.95;;;11.35;;
73672;SDS011;61972;19.480;-99.240;2022-11-18T00:26:15;19.38;;;10.70;;
73672;SDS011;61972;19.480;-99.240;2022-11-18T00:28:42;16.20;;;8.75;;
73672;SDS011;61972;19.480;-99.240;2022-11-18T00:31:11;16.97;;;8.20;;
73672;SDS011;61972;19.480;-99.240;2022-11-18T00:33:38;16.95;;;7.47;;
73672;SDS011;61972;19.480;-99.240;2022-11-18T00:36:06;18.23;;;8.00;;
73672;SDS011;61972;19.480;-99.240;2022-11-18T00:39:09;24.20;;;6.93;;
73672;SDS011;61972;19.480;-99.240;2022-11-18T00:41:26;12.88;;;5.47;;
73672;SDS011;61972;19.480;-99.240;2022-11-18T00:44:12;10.50;;;5.50;;
73672;SDS011;61972;19.480;-99.240;2022-11-18T00:46:38;21.20;;;6.35;;
73672;SDS011;61972;19.480;-99.240;2022-11-18T00:49:04;13.73;;;5.30;;
73672;SDS011;61972;19.480;-99.240;2022-11-18T00:51:31;12.13;;;4.80;;
73672;SDS011;61972;19.480;-99.240;2022-11-18T00:53:59;12.30;;;4.55;;
73672;SDS011;61972;19.480;-99.240;2022-11-18T00:56:30;10.47;;;4.40;;
73672;SDS011;61972;19.480;-99.240;2022-11-18T00:58:57;8.88;;;4.30;;
73672;SDS011;61972;19.480;-99.240;2022-11-18T01:01:25;11.38;;;4.13;;
73672;SDS011;61972;19.480;-99.240;2022-11-18T01:03:52;11.93;;;4.07;;
73672;SDS011;61972;19.480;-99.240;2022-11-18T01:06:21;19.50;;;4.53;;
73672;SDS011;61972;19.480;-99.240;2022-11-18T01:08:50;13.43;;;4.40;;
73672;SDS011;61972;19.480;-99.240;2022-11-18T01:11:19;11.77;;;4.30;;
73672;SDS011;61972;19.480;-99.240;2022-11-18T01:14:09;16.20;;;4.32;;
73672;SDS011;61972;19.480;-99.240;2022-11-18T01:16:35;21.10;;;4.68;;
73672;SDS011;61972;19.480;-99.240;2022-11-18T01:19:04;12.00;;;4.40;;
73672;SDS011;61972;19.480;-99.240;2022-11-18T01:21:33;15.17;;;4.37;;
73672;SDS011;61972;19.480;-99.240;2022-11-18T01:23:59;20.40;;;4.70;;
73672;SDS011;61972;19.480;-99.240;2022-11-18T01:26:25;15.20;;;4.57;;
73672;SDS011;61972;19.480;-99.240;2022-11-18T01:28:55;12.23;;;4.35;;
73672;SDS011;61972;19.480;-99.240;2022-11-18T01:31:24;12.30;;;4.25;;
73672;SDS011;61972;19.480;-99.240;2022-11-18T01:33:53;15.83;;;4.20;;
73672;SDS011;61972;19.480;-99.240;2022-11-18T01:36:23;18.35;;;4.03;;
73672;SDS011;61972;19.480;-99.240;2022-11-18T01:38:50;11.90;;;3.03;;
73672;SDS011;61972;19.480;-99.240;2022-11-18T01:41:26;16.13;;;3.90;;
73672;SDS011;61972;19.480;-99.240;2022-11-18T01:44:04;16.42;;;3.85;;
73672;SDS011;61972;19.480;-99.240;2022-11-18T01:46:56;11.80;;;3.80;;
73672;SDS011;61972;19.480;-99.240;2022-11-18T01:49:28;11.40;;;3.17;;
73672;SDS011;61972;19.480;-99.240;2022-11-18T01:51:57;13.75;;;3.47;;
73672;SDS011;61972;19.480;-99.240;2022-11-18T01:54:24;7.82;;;3.22;;
73672;SDS011;61972;19.480;-99.240;2022-11-18T01:57:13;11.75;;;3.65;;
73672;SDS011;61972;19.480;-99.240;2022-11-18T01:59:42;10.87;;;3.67;;
73672;SDS011;61972;19.480;-99.240;2022-11-18T02:02:11;9.10;;;3.60;;
73672;SDS011;61972;19.480;-99.240;2022-11-18T02:04:42;8.43;;;3.30;;
73672;SDS011;61972;19.480;-99.240;2022-11-18T02:07:12;9.25;;;3.10;;
73672;SDS011;61972;19.480;-99.240;2022-11-18T02:09:39;7.13;;;3.38;;
73672;SDS011;61972;19.480;-99.240;2022-11-18T02:12:05;8.67;;;3.10;;
73672;SDS011;61972;19.480;-99.240;2022-11-18T02:14:33;6.63;;;3.20;;
73672;SDS011;61972;19.480;-99.240;2022-11-18T02:22:23;14.40;;;3.20;;
73672;SDS011;61972;19.480;-99.240;2022-11-18T02:31:01;8.13;;;3.00;;
73672;SDS011;61972;19.480;-99.240;2022-11-18T02:39:32;7.70;;;3.00;;
73672;SDS011;61972;19.480;-99.240;2022-11-18T02:42:03;8.50;;;2.72;;
73672;SDS011;61972;19.480;-99.240;2022-11-18T02:44:37;11.82;;;2.33;;
73672;SDS011;61972;19.480;-99.240;2022-11-18T02:47:10;8.68;;;2.85;;
73672;SDS011;61972;19.480;-99.240;2022-11-18T02:49:43;6.47;;;2.50;;
73672;SDS011;61972;19.480;-99.240;2022-11-18T02:52:13;4.90;;;2.50;;
73672;SDS011;61972;19.480;-99.240;2022-11-18T02:54:43;9.20;;;2.60;;
73672;SDS011;61972;19.480;-99.240;2022-11-18T02:57:12;7.72;;;2.35;;
73672;SDS011;61972;19.480;-99.240;2022-11-18T02:59:39;5.60;;;2.40;;
73672;SDS011;61972;19.480;-99.240;2022-11-18T03:02:15;6.32;;;2.33;;
73672;SDS011;61972;19.480;-99.240;2022-11-18T03:04:44;7.97;;;2.07;;
73672;SDS011;61972;19.480;-99.240;2022-11-18T03:07:17;5.35;;;2.47;;
73672;SDS011;61972;19.480;-99.240;2022-11-18T03:09:56;7.30;;;2.40;;
73672;SDS011;61972;19.480;-99.240;2022-11-18T03:12:45;4.97;;;2.20;;
73672;SDS011;61972;19.480;-99.240;2022-11-18T03:15:24;6.78;;;2.40;;
73672;SDS011;61972;19.480;-99.240;2022-11-18T03:20:48;5.93;;;2.40;;
73672;SDS011;61972;19.480;-99.240;2022-11-18T03:31:37;5.23;;;2.20;;
73672;SDS011;61972;19.480;-99.240;2022-11-18T03:34:16;7.47;;;2.30;;
73672;SDS011;61972;19.480;-99.240;2022-11-18T03:36:47;5.43;;;2.28;;
73672;SDS011;61972;19.480;-99.240;2022-11-18T03:39:30;5.28;;;2.00;;
73672;SDS011;61972;19.480;-99.240;2022-11-18T03:42:04;5.00;;;2.47;;
73672;SDS011;61972;19.480;-99.240;2022-11-18T03:44:42;6.87;;;2.40;;
73672;SDS011;61972;19.480;-99.240;2022-11-18T03:47:23;6.45;;;2.53;;
73672;SDS011;61972;19.480;-99.240;2022-11-18T03:49:55;7.35;;;2.00;;
73672;SDS011;61972;19.480;-99.240;2022-11-18T03:52:29;9.43;;;2.40;;
73672;SDS011;61972;19.480;-99.240;2022-11-18T03:54:58;5.32;;;1.98;;
73672;SDS011;61972;19.480;-99.240;2022-11-18T04:00:19;4.90;;;2.10;;
73672;SDS011;61972;19.480;-99.240;2022-11-18T04:02:46;7.13;;;1.88;;
73672;SDS011;61972;19.480;-99.240;2022-11-18T04:05:15;5.88;;;1.90;;
73672;SDS011;61972;19.480;-99.240;2022-11-18T04:10:25;4.53;;;1.80;;
73672;SDS011;61972;19.480;-99.240;2022-11-18T04:15:38;5.50;;;2.13;;
73672;SDS011;61972;19.480;-99.240;2022-11-18T04:18:07;6.18;;;1.80;;
73672;SDS011;61972;19.480;-99.240;2022-11-18T04:20:39;3.33;;;1.55;;
73672;SDS011;61972;19.480;-99.240;2022-11-18T04:23:05;6.23;;;2.03;;
73672;SDS011;61972;19.480;-99.240;2022-11-18T04:25:32;6.70;;;1.80;;
73672;SDS011;61972;19.480;-99.240;2022-11-18T04:28:01;3.92;;;1.80;;
73672;SDS011;61972;19.480;-99.240;2022-11-18T04:30:33;5.85;;;1.75;;
73672;SDS011;61972;19.480;-99.240;2022-11-18T04:33:03;5.20;;;1.70;;
73672;SDS011;61972;19.480;-99.240;2022-11-18T04:35:29;5.47;;;1.73;;
73672;SDS011;61972;19.480;-99.240;2022-11-18T04:37:55;4.70;;;1.50;;
73672;SDS011;61972;19.480;-99.240;2022-11-18T04:40:21;5.28;;;1.35;;
73672;SDS011;61972;19.480;-99.240;2022-11-18T04:42:47;3.50;;;1.30;;
73672;SDS011;61972;19.480;-99.240;2022-11-18T04:45:13;6.07;;;1.70;;
73672;SDS011;61972;19.480;-99.240;2022-11-18T04:47:39;5.73;;;1.60;;
73672;SDS011;61972;19.480;-99.240;2022-11-18T04:50:05;5.03;;;1.60;;
73672;SDS011;61972;19.480;-99.240;2022-11-18T04:52:32;4.28;;;1.98;;
73672;SDS011;61972;19.480;-99.240;2022-11-18T04:54:58;6.03;;;1.60;;
73672;SDS011;61972;19.480;-99.240;2022-11-18T04:57:27;5.70;;;1.50;;
73672;SDS011;61972;19.480;-99.240;2022-11-18T04:59:53;4.17;;;1.93;;
73672;SDS011;61972;19.480;-99.240;2022-11-18T05:02:19;4.43;;;1.63;;
73672;SDS011;61972;19.480;-99.240;2022-11-18T05:04:45;2.67;;;1.30;;
73672;SDS011;61972;19.480;-99.240;2022-11-18T05:07:12;3.80;;;1.30;;
73672;SDS011;61972;19.480;-99.240;2022-11-18T05:09:42;4.95;;;1.70;;
73672;SDS011;61972;19.480;-99.240;2022-11-18T05:12:14;4.27;;;1.30;;
73672;SDS011;61972;19.480;-99.240;2022-11-18T05:14:59;4.15;;;1.30;;
73672;SDS011;61972;19.480;-99.240;2022-11-18T05:17:28;3.50;;;1.00;;
73672;SDS011;61972;19.480;-99.240;2022-11-18T05:19:54;2.58;;;1.40;;
73672;SDS011;61972;19.480;-99.240;2022-11-18T05:22:21;4.40;;;1.20;;
73672;SDS011;61972;19.480;-99.240;2022-11-18T05:24:49;2.13;;;1.10;;
73672;SDS011;61972;19.480;-99.240;2022-11-18T05:27:15;3.67;;;1.50;;
73672;SDS011;61972;19.480;-99.240;2022-11-18T05:29:44;3.28;;;1.30;;
73672;SDS011;61972;19.480;-99.240;2022-11-18T05:32:10;3.42;;;1.60;;
73672;SDS011;61972;19.480;-99.240;2022-11-18T05:34:38;2.40;;;1.40;;
73672;SDS011;61972;19.480;-99.240;2022-11-18T05:37:08;4.13;;;1.40;;
73672;SDS011;61972;19.480;-99.240;2022-11-18T05:39:34;4.55;;;1.55;;
73672;SDS011;61972;19.480;-99.240;2022-11-18T05:42:01;3.08;;;1.60;;
73672;SDS011;61972;19.480;-99.240;2022-11-18T05:44:45;2.95;;;1.73;;
73672;SDS011;61972;19.480;-99.240;2022-11-18T05:47:15;3.42;;;1.88;;
73672;SDS011;61972;19.480;-99.240;2022-11-18T05:49:41;7.20;;;2.57;;
73672;SDS011;61972;19.480;-99.240;2022-11-18T05:52:10;27.30;;;15.70;;
73672;SDS011;61972;19.480;-99.240;2022-11-18T05:54:43;54.78;;;32.97;;
73672;SDS011;61972;19.480;-99.240;2022-11-18T05:57:16;79.25;;;48.80;;
73672;SDS011;61972;19.480;-99.240;2022-11-18T05:59:42;55.30;;;35.97;;
73672;SDS011;61972;19.480;-99.240;2022-11-18T06:02:12;47.00;;;28.80;;
73672;SDS011;61972;19.480;-99.240;2022-11-18T06:04:42;52.25;;;32.47;;
73672;SDS011;61972;19.480;-99.240;2022-11-18T06:10:25;49.65;;;31.92;;
73672;SDS011;61972;19.480;-99.240;2022-11-18T06:12:55;48.55;;;31.05;;
73672;SDS011;61972;19.480;-99.240;2022-11-18T06:15:33;48.57;;;30.27;;
73672;SDS011;61972;19.480;-99.240;2022-11-18T06:18:16;49.67;;;31.13;;
73672;SDS011;61972;19.480;-99.240;2022-11-18T06:20:43;46.50;;;29.20;;
73672;SDS011;61972;19.480;-99.240;2022-11-18T06:23:10;46.67;;;29.85;;
73672;SDS011;61972;19.480;-99.240;2022-11-18T06:25:37;44.78;;;29.95;;
73672;SDS011;61972;19.480;-99.240;2022-11-18T06:28:05;45.00;;;28.60;;
73672;SDS011;61972;19.480;-99.240;2022-11-18T06:30:34;44.58;;;29.75;;
73672;SDS011;61972;19.480;-99.240;2022-11-18T06:33:01;42.25;;;30.00;;
73672;SDS011;61972;19.480;-99.240;2022-11-18T06:35:27;44.92;;;28.45;;
73672;SDS011;61972;19.480;-99.240;2022-11-18T06:37:53;45.25;;;29.48;;
73672;SDS011;61972;19.480;-99.240;2022-11-18T06:40:22;43.67;;;27.93;;
73672;SDS011;61972;19.480;-99.240;2022-11-18T06:42:48;45.67;;;29.60;;
73672;SDS011;61972;19.480;-99.240;2022-11-18T06:45:32;45.13;;;28.20;;
73672;SDS011;61972;19.480;-99.240;2022-11-18T06:47:58;40.58;;;27.80;;
73672;SDS011;61972;19.480;-99.240;2022-11-18T06:50:28;43.15;;;27.83;;
73672;SDS011;61972;19.480;-99.240;2022-11-18T06:52:55;43.03;;;28.10;;
73672;SDS011;61972;19.480;-99.240;2022-11-18T06:55:24;40.65;;;27.08;;
73672;SDS011;61972;19.480;-99.240;2022-11-18T06:57:50;40.88;;;27.60;;
73672;SDS011;61972;19.480;-99.240;2022-11-18T07:00:16;42.05;;;26.98;;
73672;SDS011;61972;19.480;-99.240;2022-11-18T07:02:42;43.10;;;27.58;;
73672;SDS011;61972;19.480;-99.240;2022-11-18T07:05:09;40.53;;;26.90;;
73672;SDS011;61972;19.480;-99.240;2022-11-18T07:07:37;41.78;;;26.15;;
73672;SDS011;61972;19.480;-99.240;2022-11-18T07:10:03;43.15;;;26.90;;
73672;SDS011;61972;19.480;-99.240;2022-11-18T07:12:32;38.60;;;26.55;;
73672;SDS011;61972;19.480;-99.240;2022-11-18T07:15:01;39.47;;;26.75;;
73672;SDS011;61972;19.480;-99.240;2022-11-18T07:17:28;39.57;;;26.37;;
73672;SDS011;61972;19.480;-99.240;2022-11-18T07:19:55;41.63;;;27.00;;
73672;SDS011;61972;19.480;-99.240;2022-11-18T07:22:21;42.13;;;26.13;;
73672;SDS011;61972;19.480;-99.240;2022-11-18T07:24:47;38.72;;;26.42;;
73672;SDS011;61972;19.480;-99.240;2022-11-18T07:27:13;39.22;;;25.83;;
73672;SDS011;61972;19.480;-99.240;2022-11-18T07:29:39;35.20;;;24.53;;
73672;SDS011;61972;19.480;-99.240;2022-11-18T07:32:06;38.60;;;26.05;;
73672;SDS011;61972;19.480;-99.240;2022-11-18T07:34:32;39.55;;;25.45;;
73672;SDS011;61972;19.480;-99.240;2022-11-18T07:37:00;36.25;;;24.73;;
73672;SDS011;61972;19.480;-99.240;2022-11-18T07:39:26;34.85;;;24.60;;
73672;SDS011;61972;19.480;-99.240;2022-11-18T07:41:55;34.37;;;24.70;;
73672;SDS011;61972;19.480;-99.240;2022-11-18T07:44:21;34.05;;;23.67;;
73672;SDS011;61972;19.480;-99.240;2022-11-18T07:46:47;36.90;;;24.67;;
73672;SDS011;61972;19.480;-99.240;2022-11-18T07:49:13;35.30;;;24.52;;
73672;SDS011;61972;19.480;-99.240;2022-11-18T07:51:40;37.53;;;24.65;;
73672;SDS011;61972;19.480;-99.240;2022-11-18T07:54:07;34.83;;;23.40;;
73672;SDS011;61972;19.480;-99.240;2022-11-18T07:56:33;34.50;;;24.35;;
73672;SDS011;61972;19.480;-99.240;2022-11-18T07:58:59;34.28;;;23.85;;
73672;SDS011;61972;19.480;-99.240;2022-11-18T08:01:34;33.58;;;23.38;;
73672;SDS011;61972;19.480;-99.240;2022-11-18T08:04:07;36.60;;;24.02;;
73672;SDS011;61972;19.480;-99.240;2022-11-18T08:06:35;35.43;;;23.60;;
73672;SDS011;61972;19.480;-99.240;2022-11-18T08:09:02;34.58;;;22.65;;
73672;SDS011;61972;19.480;-99.240;2022-11-18T08:11:29;31.92;;;22.95;;
73672;SDS011;61972;19.480;-99.240;2022-11-18T08:13:55;33.70;;;23.15;;
73672;SDS011;61972;19.480;-99.240;2022-11-18T08:16:23;32.78;;;23.08;;
73672;SDS011;61972;19.480;-99.240;2022-11-18T08:18:50;30.37;;;21.67;;
73672;SDS011;61972;19.480;-99.240;2022-11-18T08:21:17;32.83;;;22.75;;
73672;SDS011;61972;19.480;-99.240;2022-11-18T08:23:57;34.03;;;22.50;;
73672;SDS011;61972;19.480;-99.240;2022-11-18T08:26:26;33.42;;;22.15;;
73672;SDS011;61972;19.480;-99.240;2022-11-18T08:28:52;32.22;;;22.40;;
73672;SDS011;61972;19.480;-99.240;2022-11-18T08:31:26;31.10;;;21.57;;
73672;SDS011;61972;19.480;-99.240;2022-11-18T08:33:56;33.47;;;22.15;;
73672;SDS011;61972;19.480;-99.240;2022-11-18T08:36:25;31.67;;;21.45;;
73672;SDS011;61972;19.480;-99.240;2022-11-18T08:39:00;29.85;;;21.27;;
73672;SDS011;61972;19.480;-99.240;2022-11-18T08:41:35;29.08;;;21.63;;
73672;SDS011;61972;19.480;-99.240;2022-11-18T08:44:28;29.17;;;20.53;;
73672;SDS011;61972;19.480;-99.240;2022-11-18T08:47:06;29.77;;;21.35;;
73672;SDS011;61972;19.480;-99.240;2022-11-18T08:49:35;32.10;;;20.75;;
73672;SDS011;61972;19.480;-99.240;2022-11-18T08:52:26;31.10;;;20.60;;
73672;SDS011;61972;19.480;-99.240;2022-11-18T08:54:52;29.45;;;20.77;;
73672;SDS011;61972;19.480;-99.240;2022-11-18T08:57:18;30.03;;;20.13;;
73672;SDS011;61972;19.480;-99.240;2022-11-18T08:59:45;28.80;;;20.27;;
73672;SDS011;61972;19.480;-99.240;2022-11-18T09:02:14;29.95;;;20.73;;
73672;SDS011;61972;19.480;-99.240;2022-11-18T09:04:53;29.40;;;20.80;;
73672;SDS011;61972;19.480;-99.240;2022-11-18T09:07:22;28.40;;;19.70;;
73672;SDS011;61972;19.480;-99.240;2022-11-18T09:09:51;29.03;;;19.67;;
73672;SDS011;61972;19.480;-99.240;2022-11-18T09:12:17;28.27;;;19.63;;
73672;SDS011;61972;19.480;-99.240;2022-11-18T09:14:46;28.05;;;19.85;;
73672;SDS011;61972;19.480;-99.240;2022-11-18T09:17:12;26.45;;;19.38;;
73672;SDS011;61972;19.480;-99.240;2022-11-18T09:19:39;28.00;;;19.65;;
73672;SDS011;61972;19.480;-99.240;2022-11-18T09:22:06;29.13;;;20.27;;
73672;SDS011;61972;19.480;-99.240;2022-11-18T09:24:32;27.52;;;20.15;;
73672;SDS011;61972;19.480;-99.240;2022-11-18T09:27:03;27.50;;;19.58;;
73672;SDS011;61972;19.480;-99.240;2022-11-18T09:29:30;27.00;;;19.02;;
73672;SDS011;61972;19.480;-99.240;2022-11-18T09:31:59;26.65;;;19.02;;
73672;SDS011;61972;19.480;-99.240;2022-11-18T09:34:27;25.70;;;18.67;;
73672;SDS011;61972;19.480;-99.240;2022-11-18T09:36:53;26.83;;;18.58;;
73672;SDS011;61972;19.480;-99.240;2022-11-18T09:39:23;26.20;;;18.50;;
73672;SDS011;61972;19.480;-99.240;2022-11-18T09:44:43;25.40;;;18.27;;
73672;SDS011;61972;19.480;-99.240;2022-11-18T09:47:29;25.83;;;18.93;;
73672;SDS011;61972;19.480;-99.240;2022-11-18T09:49:58;24.67;;;17.15;;
73672;SDS011;61972;19.480;-99.240;2022-11-18T09:55:43;24.73;;;17.98;;
73672;SDS011;61972;19.480;-99.240;2022-11-18T09:58:17;27.80;;;18.55;;
73672;SDS011;61972;19.480;-99.240;2022-11-18T10:00:51;24.43;;;17.70;;
73672;SDS011;61972;19.480;-99.240;2022-11-18T10:05:47;25.65;;;17.58;;
73672;SDS011;61972;19.480;-99.240;2022-11-18T10:08:24;26.25;;;17.73;;
73672;SDS011;61972;19.480;-99.240;2022-11-18T10:19:20;23.40;;;15.05;;
73672;SDS011;61972;19.480;-99.240;2022-11-18T10:24:18;22.80;;;15.27;;
73672;SDS011;61972;19.480;-99.240;2022-11-18T10:27:09;21.10;;;15.17;;
73672;SDS011;61972;19.480;-99.240;2022-11-18T10:29:37;21.33;;;14.90;;
73672;SDS011;61972;19.480;-99.240;2022-11-18T10:37:24;21.90;;;14.05;;
73672;SDS011;61972;19.480;-99.240;2022-11-18T10:39:52;25.20;;;13.70;;
73672;SDS011;61972;19.480;-99.240;2022-11-18T10:42:27;23.30;;;13.10;;
73672;SDS011;61972;19.480;-99.240;2022-11-18T10:47:57;20.17;;;12.25;;
73672;SDS011;61972;19.480;-99.240;2022-11-18T10:50:40;18.75;;;11.57;;
73672;SDS011;61972;19.480;-99.240;2022-11-18T10:53:28;18.33;;;11.53;;
73672;SDS011;61972;19.480;-99.240;2022-11-18T10:55:57;19.58;;;10.80;;
73672;SDS011;61972;19.480;-99.240;2022-11-18T10:58:24;23.13;;;11.07;;
73672;SDS011;61972;19.480;-99.240;2022-11-18T11:00:54;22.20;;;10.93;;
73672;SDS011;61972;19.480;-99.240;2022-11-18T11:03:32;17.63;;;10.43;;
73672;SDS011;61972;19.480;-99.240;2022-11-18T11:06:12;27.27;;;10.60;;
73672;SDS011;61972;19.480;-99.240;2022-11-18T11:08:49;17.08;;;10.65;;
73672;SDS011;61972;19.480;-99.240;2022-11-18T11:11:36;22.10;;;9.82;;
73672;SDS011;61972;19.480;-99.240;2022-11-18T11:14:15;16.38;;;9.73;;
73672;SDS011;61972;19.480;-99.240;2022-11-18T11:16:56;14.73;;;9.15;;
73672;SDS011;61972;19.480;-99.240;2022-11-18T11:19:37;13.73;;;8.13;;
73672;SDS011;61972;19.480;-99.240;2022-11-18T11:22:10;15.15;;;9.02;;
73672;SDS011;61972;19.480;-99.240;2022-11-18T11:24:37;15.98;;;8.82;;
73672;SDS011;61972;19.480;-99.240;2022-11-18T11:27:15;12.43;;;8.20;;
73672;SDS011;61972;19.480;-99.240;2022-11-18T11:32:50;15.17;;;8.77;;
73672;SDS011;61972;19.480;-99.240;2022-11-18T11:38:00;12.60;;;7.72;;
73672;SDS011;61972;19.480;-99.240;2022-11-18T11:40:41;13.20;;;7.95;;
73672;SDS011;61972;19.480;-99.240;2022-11-18T11:51:30;12.57;;;7.35;;
73672;SDS011;61972;19.480;-99.240;2022-11-18T11:56:57;12.93;;;7.20;;
73672;SDS011;61972;19.480;-99.240;2022-11-18T12:02:20;9.63;;;6.60;;
73672;SDS011;61972;19.480;-99.240;2022-11-18T12:04:59;11.68;;;7.32;;
73672;SDS011;61972;19.480;-99.240;2022-11-18T12:07:44;11.80;;;6.43;;
73672;SDS011;61972;19.480;-99.240;2022-11-18T12:13:41;10.83;;;6.53;;
73672;SDS011;61972;19.480;-99.240;2022-11-18T12:18:57;10.77;;;6.68;;
73672;SDS011;61972;19.480;-99.240;2022-11-18T12:26:43;9.93;;;6.13;;
73672;SDS011;61972;19.480;-99.240;2022-11-18T12:31:46;9.50;;;6.00;;
73672;SDS011;61972;19.480;-99.240;2022-11-18T12:37:44;10.30;;;6.80;;
73672;SDS011;61972;19.480;-99.240;2022-11-18T12:40:29;10.03;;;6.13;;
73672;SDS011;61972;19.480;-99.240;2022-11-18T12:42:59;10.18;;;6.53;;
73672;SDS011;61972;19.480;-99.240;2022-11-18T12:50:49;8.70;;;5.78;;
73672;SDS011;61972;19.480;-99.240;2022-11-18T12:56:25;9.52;;;5.97;;
73672;SDS011;61972;19.480;-99.240;2022-11-18T12:58:55;12.25;;;6.20;;
73672;SDS011;61972;19.480;-99.240;2022-11-18T13:01:26;9.05;;;6.18;;
73672;SDS011;61972;19.480;-99.240;2022-11-18T13:04:16;11.45;;;6.13;;
73672;SDS011;61972;19.480;-99.240;2022-11-18T13:06:44;9.37;;;6.10;;
73672;SDS011;61972;19.480;-99.240;2022-11-18T13:09:13;11.10;;;6.50;;
73672;SDS011;61972;19.480;-99.240;2022-11-18T13:11:52;9.75;;;6.05;;
73672;SDS011;61972;19.480;-99.240;2022-11-18T13:14:28;10.05;;;5.90;;
73672;SDS011;61972;19.480;-99.240;2022-11-18T13:17:27;11.50;;;6.35;;
73672;SDS011;61972;19.480;-99.240;2022-11-18T13:23:23;10.00;;;6.07;;
73672;SDS011;61972;19.480;-99.240;2022-11-18T13:34:45;9.73;;;6.40;;
73672;SDS011;61972;19.480;-99.240;2022-11-18T13:37:17;9.88;;;6.20;;
73672;SDS011;61972;19.480;-99.240;2022-11-18T13:39:46;8.82;;;6.20;;
73672;SDS011;61972;19.480;-99.240;2022-11-18T13:42:20;10.18;;;6.22;;
73672;SDS011;61972;19.480;-99.240;2022-11-18T13:44:54;9.88;;;6.10;;
73672;SDS011;61972;19.480;-99.240;2022-11-18T13:47:22;10.83;;;6.30;;
73672;SDS011;61972;19.480;-99.240;2022-11-18T13:50:01;11.32;;;5.97;;
73672;SDS011;61972;19.480;-99.240;2022-11-18T13:53:08;11.05;;;6.65;;
73672;SDS011;61972;19.480;-99.240;2022-11-18T14:01:15;9.77;;;6.00;;
73672;SDS011;61972;19.480;-99.240;2022-11-18T14:03:49;12.07;;;6.23;;
73672;SDS011;61972;19.480;-99.240;2022-11-18T14:06:28;10.25;;;6.55;;
73672;SDS011;61972;19.480;-99.240;2022-11-18T14:12:01;12.32;;;6.38;;
73672;SDS011;61972;19.480;-99.240;2022-11-18T14:14:35;11.38;;;6.28;;
73672;SDS011;61972;19.480;-99.240;2022-11-18T14:17:17;12.30;;;6.23;;
73672;SDS011;61972;19.480;-99.240;2022-11-18T14:19:45;10.85;;;6.03;;
73672;SDS011;61972;19.480;-99.240;2022-11-18T14:22:14;10.13;;;6.60;;
73672;SDS011;61972;19.480;-99.240;2022-11-18T14:25:21;11.23;;;5.93;;
73672;SDS011;61972;19.480;-99.240;2022-11-18T14:27:45;9.63;;;6.28;;
73672;SDS011;61972;19.480;-99.240;2022-11-18T14:30:26;9.47;;;5.90;;
73672;SDS011;61972;19.480;-99.240;2022-11-18T14:33:16;9.13;;;5.95;;
73672;SDS011;61972;19.480;-99.240;2022-11-18T14:36:18;10.38;;;6.57;;
73672;SDS011;61972;19.480;-99.240;2022-11-18T14:38:46;14.27;;;6.22;;
73672;SDS011;61972;19.480;-99.240;2022-11-18T14:41:16;8.27;;;5.93;;
73672;SDS011;61972;19.480;-99.240;2022-11-18T14:44:06;10.27;;;6.07;;
73672;SDS011;61972;19.480;-99.240;2022-11-18T14:46:33;9.75;;;6.13;;
73672;SDS011;61972;19.480;-99.240;2022-11-18T14:49:03;10.77;;;6.35;;
73672;SDS011;61972;19.480;-99.240;2022-11-18T14:51:31;8.90;;;6.03;;
73672;SDS011;61972;19.480;-99.240;2022-11-18T14:53:57;13.30;;;6.13;;
73672;SDS011;61972;19.480;-99.240;2022-11-18T14:56:24;11.33;;;5.60;;
73672;SDS011;61972;19.480;-99.240;2022-11-18T14:58:52;8.68;;;5.13;;
73672;SDS011;61972;19.480;-99.240;2022-11-18T15:01:19;9.15;;;5.68;;
73672;SDS011;61972;19.480;-99.240;2022-11-18T15:03:45;10.35;;;5.28;;
73672;SDS011;61972;19.480;-99.240;2022-11-18T15:06:15;15.82;;;6.40;;
73672;SDS011;61972;19.480;-99.240;2022-11-18T15:08:44;14.27;;;7.40;;
73672;SDS011;61972;19.480;-99.240;2022-11-18T15:11:11;16.85;;;7.43;;
73672;SDS011;61972;19.480;-99.240;2022-11-18T15:13:38;13.25;;;7.20;;
73672;SDS011;61972;19.480;-99.240;2022-11-18T15:16:15;11.85;;;7.22;;
73672;SDS011;61972;19.480;-99.240;2022-11-18T15:18:43;11.32;;;6.93;;
73672;SDS011;61972;19.480;-99.240;2022-11-18T15:21:11;12.33;;;7.07;;
73672;SDS011;61972;19.480;-99.240;2022-11-18T15:23:38;12.50;;;7.07;;
73672;SDS011;61972;19.480;-99.240;2022-11-18T15:26:20;12.93;;;7.32;;
73672;SDS011;61972;19.480;-99.240;2022-11-18T15:28:48;14.77;;;7.50;;
73672;SDS011;61972;19.480;-99.240;2022-11-18T15:31:16;12.75;;;7.55;;
73672;SDS011;61972;19.480;-99.240;2022-11-18T15:33:46;12.87;;;8.10;;
73672;SDS011;61972;19.480;-99.240;2022-11-18T15:36:15;12.23;;;7.53;;
73672;SDS011;61972;19.480;-99.240;2022-11-18T15:38:43;12.57;;;7.82;;
73672;SDS011;61972;19.480;-99.240;2022-11-18T15:41:12;12.65;;;7.88;;
73672;SDS011;61972;19.480;-99.240;2022-11-18T15:43:50;13.23;;;7.97;;
73672;SDS011;61972;19.480;-99.240;2022-11-18T15:46:18;14.40;;;7.40;;
73672;SDS011;61972;19.480;-99.240;2022-11-18T15:48:55;11.38;;;7.07;;
73672;SDS011;61972;19.480;-99.240;2022-11-18T15:51:23;12.27;;;7.82;;
73672;SDS011;61972;19.480;-99.240;2022-11-18T15:53:51;12.57;;;7.05;;
73672;SDS011;61972;19.480;-99.240;2022-11-18T15:56:28;13.30;;;7.88;;
73672;SDS011;61972;19.480;-99.240;2022-11-18T16:01:26;14.70;;;8.80;;
73672;SDS011;61972;19.480;-99.240;2022-11-18T16:03:57;14.00;;;7.68;;
73672;SDS011;61972;19.480;-99.240;2022-11-18T16:06:23;11.98;;;7.85;;
73672;SDS011;61972;19.480;-99.240;2022-11-18T16:08:50;13.75;;;8.35;;
73672;SDS011;61972;19.480;-99.240;2022-11-18T16:11:17;13.17;;;8.50;;
73672;SDS011;61972;19.480;-99.240;2022-11-18T16:14:02;12.80;;;8.32;;
73672;SDS011;61972;19.480;-99.240;2022-11-18T16:16:33;14.18;;;8.45;;
73672;SDS011;61972;19.480;-99.240;2022-11-18T16:19:04;13.48;;;8.43;;
73672;SDS011;61972;19.480;-99.240;2022-11-18T16:21:36;12.73;;;8.10;;
73672;SDS011;61972;19.480;-99.240;2022-11-18T16:24:06;13.40;;;8.60;;
73672;SDS011;61972;19.480;-99.240;2022-11-18T16:26:35;11.57;;;8.25;;
73672;SDS011;61972;19.480;-99.240;2022-11-18T16:29:08;12.27;;;8.38;;
73672;SDS011;61972;19.480;-99.240;2022-11-18T16:31:40;15.38;;;9.07;;
73672;SDS011;61972;19.480;-99.240;2022-11-18T16:34:40;13.43;;;8.25;;
73672;SDS011;61972;19.480;-99.240;2022-11-18T16:37:02;11.20;;;7.97;;
73672;SDS011;61972;19.480;-99.240;2022-11-18T16:39:34;13.02;;;8.55;;
73672;SDS011;61972;19.480;-99.240;2022-11-18T16:42:09;14.45;;;8.98;;
73672;SDS011;61972;19.480;-99.240;2022-11-18T16:44:36;13.55;;;8.68;;
73672;SDS011;61972;19.480;-99.240;2022-11-18T16:47:02;16.92;;;9.30;;
73672;SDS011;61972;19.480;-99.240;2022-11-18T16:49:29;13.87;;;8.77;;